sensor_id;sensor_type;location;lat;lon;timestamp;temperature;humidity
12053;DHT22;6087;48.982;12.064;2023-03-23T00:01:32;12.10;1.00
12053;DHT22;6087;48.982;12.064;2023-03-23T00:04:03;12.00;1.00
12053;DHT22;6087;48.982;12.064;2023-03-23T00:06:37;12.00;1.00
12053;DHT22;6087;48.982;12.064;2023-03-23T00:09:04;12.00;1.00
12053;DHT22;6087;48.982;12.064;2023-03-23T00:11:41;12.00;1.00
12053;DHT22;6087;48.982;12.064;2023-03-23T00:14:09;11.90;1.00
12053;DHT22;6087;48.982;12.064;2023-03-23T00:16:39;11.90;1.00
12053;DHT22;6087;48.982;12.064;2023-03-23T00:19:09;11.80;1.00
12053;DHT22;6087;48.982;12.064;2023-03-23T00:21:39;11.80;1.00
12053;DHT22;6087;48.982;12.064;2023-03-23T00:24:10;11.70;1.00
12053;DHT22;6087;48.982;12.064;2023-03-23T00:26:38;11.70;1.00
12053;DHT22;6087;48.982;12.064;2023-03-23T00:29:07;11.70;1.00
12053;DHT22;6087;48.982;12.064;2023-03-23T00:31:39;11.70;1.00
12053;DHT22;6087;48.982;12.064;2023-03-23T00:34:08;11.60;1.30
12053;DHT22;6087;48.982;12.064;2023-03-23T00:36:37;11.60;1.80
12053;DHT22;6087;48.982;12.064;2023-03-23T00:39:08;11.60;1.80
12053;DHT22;6087;48.982;12.064;2023-03-23T00:41:35;11.60;1.30
12053;DHT22;6087;48.982;12.064;2023-03-23T00:44:03;11.50;1.20
12053;DHT22;6087;48.982;12.064;2023-03-23T00:46:30;11.50;1.00
12053;DHT22;6087;48.982;12.064;2023-03-23T00:48:57;11.50;1.00
12053;DHT22;6087;48.982;12.064;2023-03-23T00:51:26;11.50;1.20
12053;DHT22;6087;48.982;12.064;2023-03-23T00:53:52;11.50;1.40
12053;DHT22;6087;48.982;12.064;2023-03-23T00:56:19;11.50;1.60
12053;DHT22;6087;48.982;12.064;2023-03-23T00:58:46;11.50;1.80
12053;DHT22;6087;48.982;12.064;2023-03-23T01:01:13;11.50;1.70
12053;DHT22;6087;48.982;12.064;2023-03-23T01:03:40;11.50;2.00
12053;DHT22;6087;48.982;12.064;2023-03-23T01:06:09;11.40;2.00
12053;DHT22;6087;48.982;12.064;2023-03-23T01:08:39;11.40;2.60
12053;DHT22;6087;48.982;12.064;2023-03-23T01:11:11;11.30;3.00
12053;DHT22;6087;48.982;12.064;2023-03-23T01:13:38;11.30;3.10
12053;DHT22;6087;48.982;12.064;2023-03-23T01:16:06;11.30;3.10
12053;DHT22;6087;48.982;12.064;2023-03-23T01:18:33;11.30;3.50
12053;DHT22;6087;48.982;12.064;2023-03-23T01:21:04;11.20;3.10
12053;DHT22;6087;48.982;12.064;2023-03-23T01:23:32;11.30;3.10
12053;DHT22;6087;48.982;12.064;2023-03-23T01:26:11;11.30;3.00
12053;DHT22;6087;48.982;12.064;2023-03-23T01:28:38;11.30;3.10
12053;DHT22;6087;48.982;12.064;2023-03-23T01:31:07;11.30;2.80
12053;DHT22;6087;48.982;12.064;2023-03-23T01:33:34;11.30;3.00
12053;DHT22;6087;48.982;12.064;2023-03-23T01:36:03;11.30;3.50
12053;DHT22;6087;48.982;12.064;2023-03-23T01:38:30;11.30;3.70
12053;DHT22;6087;48.982;12.064;2023-03-23T01:40:57;11.30;3.80
12053;DHT22;6087;48.982;12.064;2023-03-23T01:43:26;11.30;3.80
12053;DHT22;6087;48.982;12.064;2023-03-23T01:45:53;11.30;3.60
12053;DHT22;6087;48.982;12.064;2023-03-23T01:48:23;11.20;3.60
12053;DHT22;6087;48.982;12.064;2023-03-23T01:50:56;11.30;4.10
12053;DHT22;6087;48.982;12.064;2023-03-23T01:53:27;11.20;4.00
12053;DHT22;6087;48.982;12.064;2023-03-23T01:55:56;11.20;4.10
12053;DHT22;6087;48.982;12.064;2023-03-23T01:58:27;11.20;4.30
12053;DHT22;6087;48.982;12.064;2023-03-23T02:00:57;11.10;4.30
12053;DHT22;6087;48.982;12.064;2023-03-23T02:03:27;11.10;4.30
12053;DHT22;6087;48.982;12.064;2023-03-23T02:05:55;11.00;4.40
12053;DHT22;6087;48.982;12.064;2023-03-23T02:08:24;11.00;4.50
12053;DHT22;6087;48.982;12.064;2023-03-23T02:10:53;11.10;4.70
12053;DHT22;6087;48.982;12.064;2023-03-23T02:13:20;11.10;4.70
12053;DHT22;6087;48.982;12.064;2023-03-23T02:15:58;11.00;5.70
12053;DHT22;6087;48.982;12.064;2023-03-23T02:18:35;11.00;6.10
12053;DHT22;6087;48.982;12.064;2023-03-23T02:24:35;11.10;6.20
12053;DHT22;6087;48.982;12.064;2023-03-23T02:27:06;11.10;6.10
12053;DHT22;6087;48.982;12.064;2023-03-23T02:29:53;11.10;6.20
12053;DHT22;6087;48.982;12.064;2023-03-23T02:35:19;11.10;6.20
12053;DHT22;6087;48.982;12.064;2023-03-23T02:37:49;11.10;6.30
12053;DHT22;6087;48.982;12.064;2023-03-23T02:40:20;11.10;6.30
12053;DHT22;6087;48.982;12.064;2023-03-23T02:42:50;11.10;5.90
12053;DHT22;6087;48.982;12.064;2023-03-23T02:45:20;11.10;6.00
12053;DHT22;6087;48.982;12.064;2023-03-23T02:47:51;11.20;5.60
12053;DHT22;6087;48.982;12.064;2023-03-23T02:50:23;11.20;5.60
12053;DHT22;6087;48.982;12.064;2023-03-23T02:52:52;11.20;5.50
12053;DHT22;6087;48.982;12.064;2023-03-23T02:55:21;11.20;5.40
12053;DHT22;6087;48.982;12.064;2023-03-23T02:57:50;11.20;5.30
12053;DHT22;6087;48.982;12.064;2023-03-23T03:00:19;11.30;5.50
12053;DHT22;6087;48.982;12.064;2023-03-23T03:02:47;11.30;5.30
12053;DHT22;6087;48.982;12.064;2023-03-23T03:05:26;11.40;5.70
12053;DHT22;6087;48.982;12.064;2023-03-23T03:08:01;11.40;5.80
12053;DHT22;6087;48.982;12.064;2023-03-23T03:10:32;11.40;5.90
12053;DHT22;6087;48.982;12.064;2023-03-23T03:13:07;11.40;5.60
12053;DHT22;6087;48.982;12.064;2023-03-23T03:15:42;11.40;5.70
12053;DHT22;6087;48.982;12.064;2023-03-23T03:18:13;11.30;5.70
12053;DHT22;6087;48.982;12.064;2023-03-23T03:20:45;11.40;5.80
12053;DHT22;6087;48.982;12.064;2023-03-23T03:23:17;11.40;5.80
12053;DHT22;6087;48.982;12.064;2023-03-23T03:25:46;11.40;5.70
12053;DHT22;6087;48.982;12.064;2023-03-23T03:28:16;11.40;5.60
12053;DHT22;6087;48.982;12.064;2023-03-23T03:30:48;11.50;6.10
12053;DHT22;6087;48.982;12.064;2023-03-23T03:33:17;11.50;7.10
12053;DHT22;6087;48.982;12.064;2023-03-23T03:35:48;11.60;8.00
12053;DHT22;6087;48.982;12.064;2023-03-23T03:38:15;11.60;8.20
12053;DHT22;6087;48.982;12.064;2023-03-23T03:40:42;11.60;8.40
12053;DHT22;6087;48.982;12.064;2023-03-23T03:43:09;11.60;9.50
12053;DHT22;6087;48.982;12.064;2023-03-23T03:45:39;11.60;10.90
12053;DHT22;6087;48.982;12.064;2023-03-23T03:48:07;11.50;11.70
12053;DHT22;6087;48.982;12.064;2023-03-23T03:50:34;11.50;12.90
12053;DHT22;6087;48.982;12.064;2023-03-23T03:53:02;11.50;13.20
12053;DHT22;6087;48.982;12.064;2023-03-23T03:55:31;11.40;13.80
12053;DHT22;6087;48.982;12.064;2023-03-23T03:58:01;11.40;14.60
12053;DHT22;6087;48.982;12.064;2023-03-23T04:00:28;11.40;14.20
12053;DHT22;6087;48.982;12.064;2023-03-23T04:02:55;11.40;13.70
12053;DHT22;6087;48.982;12.064;2023-03-23T04:05:22;11.40;13.60
12053;DHT22;6087;48.982;12.064;2023-03-23T04:07:50;11.40;14.00
12053;DHT22;6087;48.982;12.064;2023-03-23T04:10:20;11.30;15.70
12053;DHT22;6087;48.982;12.064;2023-03-23T04:12:48;11.40;16.10
12053;DHT22;6087;48.982;12.064;2023-03-23T04:15:15;11.30;16.30
12053;DHT22;6087;48.982;12.064;2023-03-23T04:17:42;11.30;17.60
12053;DHT22;6087;48.982;12.064;2023-03-23T04:20:10;11.30;18.40
12053;DHT22;6087;48.982;12.064;2023-03-23T04:22:40;11.20;19.50
12053;DHT22;6087;48.982;12.064;2023-03-23T04:25:09;11.20;21.60
12053;DHT22;6087;48.982;12.064;2023-03-23T04:27:39;11.20;21.40
12053;DHT22;6087;48.982;12.064;2023-03-23T04:30:09;11.20;20.50
12053;DHT22;6087;48.982;12.064;2023-03-23T04:32:37;11.00;18.70
12053;DHT22;6087;48.982;12.064;2023-03-23T04:35:08;10.90;19.60
12053;DHT22;6087;48.982;12.064;2023-03-23T04:37:37;11.00;20.10
12053;DHT22;6087;48.982;12.064;2023-03-23T04:40:06;11.00;20.20
12053;DHT22;6087;48.982;12.064;2023-03-23T04:42:38;11.10;20.80
12053;DHT22;6087;48.982;12.064;2023-03-23T04:45:17;11.10;23.30
12053;DHT22;6087;48.982;12.064;2023-03-23T04:47:47;11.10;25.10
12053;DHT22;6087;48.982;12.064;2023-03-23T04:50:19;11.10;26.10
12053;DHT22;6087;48.982;12.064;2023-03-23T04:52:47;11.00;26.30
12053;DHT22;6087;48.982;12.064;2023-03-23T04:55:14;11.00;26.80
12053;DHT22;6087;48.982;12.064;2023-03-23T04:57:43;10.90;27.40
12053;DHT22;6087;48.982;12.064;2023-03-23T05:00:11;10.90;29.10
12053;DHT22;6087;48.982;12.064;2023-03-23T05:02:39;10.80;28.20
12053;DHT22;6087;48.982;12.064;2023-03-23T05:05:07;10.70;26.50
12053;DHT22;6087;48.982;12.064;2023-03-23T05:07:34;10.70;25.60
12053;DHT22;6087;48.982;12.064;2023-03-23T05:10:01;10.80;25.00
12053;DHT22;6087;48.982;12.064;2023-03-23T05:12:28;10.70;23.80
12053;DHT22;6087;48.982;12.064;2023-03-23T05:14:56;10.60;23.50
12053;DHT22;6087;48.982;12.064;2023-03-23T05:17:23;10.60;23.60
12053;DHT22;6087;48.982;12.064;2023-03-23T05:19:50;10.60;23.20
12053;DHT22;6087;48.982;12.064;2023-03-23T05:22:19;10.60;23.40
12053;DHT22;6087;48.982;12.064;2023-03-23T05:24:48;10.60;23.30
12053;DHT22;6087;48.982;12.064;2023-03-23T05:27:17;10.60;23.20
12053;DHT22;6087;48.982;12.064;2023-03-23T05:29:47;10.60;23.30
12053;DHT22;6087;48.982;12.064;2023-03-23T05:32:16;10.60;23.00
12053;DHT22;6087;48.982;12.064;2023-03-23T05:34:44;10.60;22.70
12053;DHT22;6087;48.982;12.064;2023-03-23T05:37:12;10.70;23.10
12053;DHT22;6087;48.982;12.064;2023-03-23T05:39:39;10.70;22.80
12053;DHT22;6087;48.982;12.064;2023-03-23T05:42:06;10.70;22.80
12053;DHT22;6087;48.982;12.064;2023-03-23T05:44:34;10.70;22.60
12053;DHT22;6087;48.982;12.064;2023-03-23T05:47:01;10.70;22.70
12053;DHT22;6087;48.982;12.064;2023-03-23T05:49:31;10.70;22.60
12053;DHT22;6087;48.982;12.064;2023-03-23T05:51:58;10.70;22.80
12053;DHT22;6087;48.982;12.064;2023-03-23T05:54:25;10.80;22.90
12053;DHT22;6087;48.982;12.064;2023-03-23T05:56:52;10.80;22.80
12053;DHT22;6087;48.982;12.064;2023-03-23T05:59:19;10.80;22.70
12053;DHT22;6087;48.982;12.064;2023-03-23T06:01:46;10.80;22.80
12053;DHT22;6087;48.982;12.064;2023-03-23T06:04:13;10.90;22.70
12053;DHT22;6087;48.982;12.064;2023-03-23T06:06:42;11.00;22.80
12053;DHT22;6087;48.982;12.064;2023-03-23T06:09:11;11.10;23.50
12053;DHT22;6087;48.982;12.064;2023-03-23T06:11:38;11.10;27.00
12053;DHT22;6087;48.982;12.064;2023-03-23T06:14:05;11.10;27.70
12053;DHT22;6087;48.982;12.064;2023-03-23T06:16:32;11.10;28.50
12053;DHT22;6087;48.982;12.064;2023-03-23T06:18:59;11.10;30.30
12053;DHT22;6087;48.982;12.064;2023-03-23T06:21:27;11.00;31.30
12053;DHT22;6087;48.982;12.064;2023-03-23T06:23:56;11.00;32.60
12053;DHT22;6087;48.982;12.064;2023-03-23T06:26:27;11.00;33.80
12053;DHT22;6087;48.982;12.064;2023-03-23T06:28:55;11.00;35.10
12053;DHT22;6087;48.982;12.064;2023-03-23T06:31:23;10.90;36.60
12053;DHT22;6087;48.982;12.064;2023-03-23T06:33:50;10.90;37.60
12053;DHT22;6087;48.982;12.064;2023-03-23T06:36:18;10.90;39.30
12053;DHT22;6087;48.982;12.064;2023-03-23T06:38:45;10.90;40.40
12053;DHT22;6087;48.982;12.064;2023-03-23T06:41:14;10.90;40.50
12053;DHT22;6087;48.982;12.064;2023-03-23T06:43:41;10.90;40.20
12053;DHT22;6087;48.982;12.064;2023-03-23T06:46:09;10.90;41.20
12053;DHT22;6087;48.982;12.064;2023-03-23T06:48:36;10.90;41.90
12053;DHT22;6087;48.982;12.064;2023-03-23T06:51:04;10.90;41.70
12053;DHT22;6087;48.982;12.064;2023-03-23T06:53:31;10.90;42.30
12053;DHT22;6087;48.982;12.064;2023-03-23T06:55:58;10.90;42.80
12053;DHT22;6087;48.982;12.064;2023-03-23T06:58:26;11.00;44.00
12053;DHT22;6087;48.982;12.064;2023-03-23T07:00:54;11.00;45.20
12053;DHT22;6087;48.982;12.064;2023-03-23T07:03:22;11.10;45.90
12053;DHT22;6087;48.982;12.064;2023-03-23T07:05:49;11.10;47.70
12053;DHT22;6087;48.982;12.064;2023-03-23T07:08:16;11.10;48.50
12053;DHT22;6087;48.982;12.064;2023-03-23T07:10:43;11.10;49.20
12053;DHT22;6087;48.982;12.064;2023-03-23T07:13:10;11.10;49.60
12053;DHT22;6087;48.982;12.064;2023-03-23T07:15:38;11.10;50.00
12053;DHT22;6087;48.982;12.064;2023-03-23T07:18:05;11.10;50.60
12053;DHT22;6087;48.982;12.064;2023-03-23T07:20:32;11.10;50.10
12053;DHT22;6087;48.982;12.064;2023-03-23T07:22:59;11.20;51.50
12053;DHT22;6087;48.982;12.064;2023-03-23T07:25:27;11.10;51.30
12053;DHT22;6087;48.982;12.064;2023-03-23T07:27:54;11.10;51.10
12053;DHT22;6087;48.982;12.064;2023-03-23T07:30:21;11.10;50.20
12053;DHT22;6087;48.982;12.064;2023-03-23T07:32:52;11.10;51.70
12053;DHT22;6087;48.982;12.064;2023-03-23T07:35:19;11.10;52.50
12053;DHT22;6087;48.982;12.064;2023-03-23T07:37:46;11.10;52.30
12053;DHT22;6087;48.982;12.064;2023-03-23T07:40:15;11.10;53.00
12053;DHT22;6087;48.982;12.064;2023-03-23T07:42:43;11.20;52.90
12053;DHT22;6087;48.982;12.064;2023-03-23T07:45:11;11.20;53.20
12053;DHT22;6087;48.982;12.064;2023-03-23T07:47:38;11.20;53.30
12053;DHT22;6087;48.982;12.064;2023-03-23T07:50:08;11.30;54.30
12053;DHT22;6087;48.982;12.064;2023-03-23T07:52:36;11.30;56.00
12053;DHT22;6087;48.982;12.064;2023-03-23T07:55:05;11.30;54.90
12053;DHT22;6087;48.982;12.064;2023-03-23T07:57:32;11.40;56.40
12053;DHT22;6087;48.982;12.064;2023-03-23T07:59:59;11.40;56.60
12053;DHT22;6087;48.982;12.064;2023-03-23T08:02:26;11.40;58.50
12053;DHT22;6087;48.982;12.064;2023-03-23T08:04:53;11.40;58.70
12053;DHT22;6087;48.982;12.064;2023-03-23T08:07:23;11.40;59.00
12053;DHT22;6087;48.982;12.064;2023-03-23T08:09:50;11.40;59.20
12053;DHT22;6087;48.982;12.064;2023-03-23T08:12:17;11.50;59.10
12053;DHT22;6087;48.982;12.064;2023-03-23T08:14:44;11.50;60.20
12053;DHT22;6087;48.982;12.064;2023-03-23T08:17:13;11.50;59.50
12053;DHT22;6087;48.982;12.064;2023-03-23T08:19:40;11.50;59.00
12053;DHT22;6087;48.982;12.064;2023-03-23T08:22:08;11.50;58.40
12053;DHT22;6087;48.982;12.064;2023-03-23T08:24:37;11.60;59.20
12053;DHT22;6087;48.982;12.064;2023-03-23T08:27:04;11.60;59.70
12053;DHT22;6087;48.982;12.064;2023-03-23T08:29:32;11.60;59.50
12053;DHT22;6087;48.982;12.064;2023-03-23T08:31:59;11.60;59.20
12053;DHT22;6087;48.982;12.064;2023-03-23T08:34:28;11.70;58.80
12053;DHT22;6087;48.982;12.064;2023-03-23T08:36:56;11.70;58.80
12053;DHT22;6087;48.982;12.064;2023-03-23T08:39:23;11.80;59.00
12053;DHT22;6087;48.982;12.064;2023-03-23T08:41:52;11.80;58.90
12053;DHT22;6087;48.982;12.064;2023-03-23T08:44:19;11.90;58.70
12053;DHT22;6087;48.982;12.064;2023-03-23T08:46:46;12.00;58.60
12053;DHT22;6087;48.982;12.064;2023-03-23T08:49:13;12.00;59.10
12053;DHT22;6087;48.982;12.064;2023-03-23T08:51:40;12.10;59.60
12053;DHT22;6087;48.982;12.064;2023-03-23T08:54:07;12.10;59.60
12053;DHT22;6087;48.982;12.064;2023-03-23T08:56:34;12.20;59.80
12053;DHT22;6087;48.982;12.064;2023-03-23T08:59:03;12.20;59.90
12053;DHT22;6087;48.982;12.064;2023-03-23T09:01:30;12.30;59.70
12053;DHT22;6087;48.982;12.064;2023-03-23T09:03:57;12.30;60.70
12053;DHT22;6087;48.982;12.064;2023-03-23T09:06:25;12.40;61.00
12053;DHT22;6087;48.982;12.064;2023-03-23T09:08:55;12.40;61.20
12053;DHT22;6087;48.982;12.064;2023-03-23T09:11:22;12.50;61.10
12053;DHT22;6087;48.982;12.064;2023-03-23T09:13:52;12.50;61.50
12053;DHT22;6087;48.982;12.064;2023-03-23T09:16:21;12.60;62.30
12053;DHT22;6087;48.982;12.064;2023-03-23T09:18:53;12.60;62.70
12053;DHT22;6087;48.982;12.064;2023-03-23T09:21:24;12.60;63.20
12053;DHT22;6087;48.982;12.064;2023-03-23T09:23:51;12.60;63.20
12053;DHT22;6087;48.982;12.064;2023-03-23T09:26:19;12.70;62.50
12053;DHT22;6087;48.982;12.064;2023-03-23T09:28:45;12.70;63.50
12053;DHT22;6087;48.982;12.064;2023-03-23T09:31:12;12.70;63.60
12053;DHT22;6087;48.982;12.064;2023-03-23T09:33:50;12.80;64.10
12053;DHT22;6087;48.982;12.064;2023-03-23T09:36:17;12.80;63.90
12053;DHT22;6087;48.982;12.064;2023-03-23T09:38:46;12.80;62.90
12053;DHT22;6087;48.982;12.064;2023-03-23T09:41:36;12.80;62.20
12053;DHT22;6087;48.982;12.064;2023-03-23T09:44:08;12.90;62.40
12053;DHT22;6087;48.982;12.064;2023-03-23T09:46:48;12.90;62.40
12053;DHT22;6087;48.982;12.064;2023-03-23T09:49:20;12.90;62.20
12053;DHT22;6087;48.982;12.064;2023-03-23T09:51:51;13.00;61.70
12053;DHT22;6087;48.982;12.064;2023-03-23T09:54:27;13.10;62.90
12053;DHT22;6087;48.982;12.064;2023-03-23T09:56:59;13.10;62.30
12053;DHT22;6087;48.982;12.064;2023-03-23T09:59:30;13.20;61.70
12053;DHT22;6087;48.982;12.064;2023-03-23T10:02:01;13.20;63.30
12053;DHT22;6087;48.982;12.064;2023-03-23T10:04:36;13.30;63.20
12053;DHT22;6087;48.982;12.064;2023-03-23T10:07:10;13.30;63.50
12053;DHT22;6087;48.982;12.064;2023-03-23T10:09:39;13.30;61.90
12053;DHT22;6087;48.982;12.064;2023-03-23T10:12:13;13.30;63.80
12053;DHT22;6087;48.982;12.064;2023-03-23T10:15:02;13.30;64.60
12053;DHT22;6087;48.982;12.064;2023-03-23T10:17:33;13.30;65.60
12053;DHT22;6087;48.982;12.064;2023-03-23T10:20:31;13.30;64.10
12053;DHT22;6087;48.982;12.064;2023-03-23T10:23:05;13.40;61.20
12053;DHT22;6087;48.982;12.064;2023-03-23T10:25:35;13.40;62.90
12053;DHT22;6087;48.982;12.064;2023-03-23T10:28:10;13.50;50.20
12053;DHT22;6087;48.982;12.064;2023-03-23T10:30:40;13.60;44.20
12053;DHT22;6087;48.982;12.064;2023-03-23T10:33:13;13.80;42.40
12053;DHT22;6087;48.982;12.064;2023-03-23T10:35:47;13.80;41.30
12053;DHT22;6087;48.982;12.064;2023-03-23T10:38:24;13.90;40.90
12053;DHT22;6087;48.982;12.064;2023-03-23T10:40:58;14.00;39.00
12053;DHT22;6087;48.982;12.064;2023-03-23T10:43:27;14.20;37.80
12053;DHT22;6087;48.982;12.064;2023-03-23T10:45:58;14.20;36.00
12053;DHT22;6087;48.982;12.064;2023-03-23T10:48:29;14.30;35.60
12053;DHT22;6087;48.982;12.064;2023-03-23T10:51:11;14.30;35.10
12053;DHT22;6087;48.982;12.064;2023-03-23T10:53:44;14.40;34.20
12053;DHT22;6087;48.982;12.064;2023-03-23T10:56:22;14.50;34.60
12053;DHT22;6087;48.982;12.064;2023-03-23T10:58:50;14.60;33.50
12053;DHT22;6087;48.982;12.064;2023-03-23T11:01:19;14.80;34.10
12053;DHT22;6087;48.982;12.064;2023-03-23T11:03:48;14.90;32.90
12053;DHT22;6087;48.982;12.064;2023-03-23T11:06:22;15.00;32.60
12053;DHT22;6087;48.982;12.064;2023-03-23T11:08:52;15.20;31.60
12053;DHT22;6087;48.982;12.064;2023-03-23T11:11:25;15.20;30.30
12053;DHT22;6087;48.982;12.064;2023-03-23T11:13:57;15.30;31.40
12053;DHT22;6087;48.982;12.064;2023-03-23T11:16:26;15.40;30.40
12053;DHT22;6087;48.982;12.064;2023-03-23T11:19:00;15.50;30.00
12053;DHT22;6087;48.982;12.064;2023-03-23T11:21:40;15.60;29.60
12053;DHT22;6087;48.982;12.064;2023-03-23T11:24:13;15.70;29.80
12053;DHT22;6087;48.982;12.064;2023-03-23T11:26:43;15.90;28.00
12053;DHT22;6087;48.982;12.064;2023-03-23T11:29:13;15.90;26.60
12053;DHT22;6087;48.982;12.064;2023-03-23T11:31:43;16.00;25.80
12053;DHT22;6087;48.982;12.064;2023-03-23T11:34:19;15.90;24.40
12053;DHT22;6087;48.982;12.064;2023-03-23T11:36:51;15.90;24.60
12053;DHT22;6087;48.982;12.064;2023-03-23T11:39:22;15.90;23.60
12053;DHT22;6087;48.982;12.064;2023-03-23T11:41:50;15.90;23.30
12053;DHT22;6087;48.982;12.064;2023-03-23T11:44:17;16.00;22.90
12053;DHT22;6087;48.982;12.064;2023-03-23T11:47:00;16.00;23.10
12053;DHT22;6087;48.982;12.064;2023-03-23T11:49:37;16.10;22.40
12053;DHT22;6087;48.982;12.064;2023-03-23T11:52:13;16.10;21.40
12053;DHT22;6087;48.982;12.064;2023-03-23T11:54:46;16.10;21.40
12053;DHT22;6087;48.982;12.064;2023-03-23T11:57:16;16.20;21.50
12053;DHT22;6087;48.982;12.064;2023-03-23T11:59:47;16.30;20.90
12053;DHT22;6087;48.982;12.064;2023-03-23T12:02:30;16.20;20.10
12053;DHT22;6087;48.982;12.064;2023-03-23T12:05:24;16.30;20.50
12053;DHT22;6087;48.982;12.064;2023-03-23T12:08:07;16.20;20.40
12053;DHT22;6087;48.982;12.064;2023-03-23T12:10:41;16.20;20.00
12053;DHT22;6087;48.982;12.064;2023-03-23T12:13:33;16.30;21.10
12053;DHT22;6087;48.982;12.064;2023-03-23T12:16:09;16.30;20.40
12053;DHT22;6087;48.982;12.064;2023-03-23T12:18:47;16.30;20.80
12053;DHT22;6087;48.982;12.064;2023-03-23T12:21:20;16.20;20.50
12053;DHT22;6087;48.982;12.064;2023-03-23T12:23:58;16.10;20.70
12053;DHT22;6087;48.982;12.064;2023-03-23T12:26:30;16.10;20.50
12053;DHT22;6087;48.982;12.064;2023-03-23T12:29:16;16.10;20.50
12053;DHT22;6087;48.982;12.064;2023-03-23T12:31:53;16.00;21.00
12053;DHT22;6087;48.982;12.064;2023-03-23T12:37:24;16.10;21.30
12053;DHT22;6087;48.982;12.064;2023-03-23T12:42:58;16.00;21.40
12053;DHT22;6087;48.982;12.064;2023-03-23T12:45:47;16.00;21.50
12053;DHT22;6087;48.982;12.064;2023-03-23T12:48:22;16.00;21.80
12053;DHT22;6087;48.982;12.064;2023-03-23T12:51:15;16.00;21.30
12053;DHT22;6087;48.982;12.064;2023-03-23T12:53:49;16.00;21.80
12053;DHT22;6087;48.982;12.064;2023-03-23T12:56:23;15.90;22.30
12053;DHT22;6087;48.982;12.064;2023-03-23T12:58:55;16.00;22.60
12053;DHT22;6087;48.982;12.064;2023-03-23T13:01:25;16.00;22.60
12053;DHT22;6087;48.982;12.064;2023-03-23T13:03:56;16.00;23.00
12053;DHT22;6087;48.982;12.064;2023-03-23T13:06:31;16.00;22.50
12053;DHT22;6087;48.982;12.064;2023-03-23T13:09:02;15.90;22.30
12053;DHT22;6087;48.982;12.064;2023-03-23T13:11:33;15.90;22.50
12053;DHT22;6087;48.982;12.064;2023-03-23T13:14:10;15.80;22.10
12053;DHT22;6087;48.982;12.064;2023-03-23T13:16:49;15.80;22.60
12053;DHT22;6087;48.982;12.064;2023-03-23T13:19:24;15.80;23.50
12053;DHT22;6087;48.982;12.064;2023-03-23T13:22:00;15.70;22.90
12053;DHT22;6087;48.982;12.064;2023-03-23T13:24:30;15.70;23.30
12053;DHT22;6087;48.982;12.064;2023-03-23T13:27:00;15.70;25.40
12053;DHT22;6087;48.982;12.064;2023-03-23T13:29:29;15.70;26.10
12053;DHT22;6087;48.982;12.064;2023-03-23T13:32:06;15.70;26.10
12053;DHT22;6087;48.982;12.064;2023-03-23T13:34:35;15.70;25.80
12053;DHT22;6087;48.982;12.064;2023-03-23T13:37:05;15.70;26.30
12053;DHT22;6087;48.982;12.064;2023-03-23T13:39:37;15.70;25.60
12053;DHT22;6087;48.982;12.064;2023-03-23T13:42:19;15.70;26.20
12053;DHT22;6087;48.982;12.064;2023-03-23T13:45:07;15.80;26.40
12053;DHT22;6087;48.982;12.064;2023-03-23T13:47:40;15.80;26.30
12053;DHT22;6087;48.982;12.064;2023-03-23T13:50:26;15.70;25.10
12053;DHT22;6087;48.982;12.064;2023-03-23T13:53:00;15.70;24.90
12053;DHT22;6087;48.982;12.064;2023-03-23T13:55:39;15.80;24.90
12053;DHT22;6087;48.982;12.064;2023-03-23T13:58:23;15.90;25.40
12053;DHT22;6087;48.982;12.064;2023-03-23T14:01:02;16.00;24.80
12053;DHT22;6087;48.982;12.064;2023-03-23T14:03:38;16.00;23.60
12053;DHT22;6087;48.982;12.064;2023-03-23T14:06:10;16.00;23.50
12053;DHT22;6087;48.982;12.064;2023-03-23T14:08:40;16.00;23.40
12053;DHT22;6087;48.982;12.064;2023-03-23T14:11:13;16.00;23.40
12053;DHT22;6087;48.982;12.064;2023-03-23T14:13:50;16.00;23.90
12053;DHT22;6087;48.982;12.064;2023-03-23T14:16:19;16.00;23.70
12053;DHT22;6087;48.982;12.064;2023-03-23T14:18:53;16.00;23.40
12053;DHT22;6087;48.982;12.064;2023-03-23T14:21:32;16.00;23.60
12053;DHT22;6087;48.982;12.064;2023-03-23T14:24:03;15.90;23.50
12053;DHT22;6087;48.982;12.064;2023-03-23T14:26:34;15.90;23.80
12053;DHT22;6087;48.982;12.064;2023-03-23T14:29:04;15.90;23.80
12053;DHT22;6087;48.982;12.064;2023-03-23T14:31:31;15.90;23.90
12053;DHT22;6087;48.982;12.064;2023-03-23T14:34:04;15.90;24.20
12053;DHT22;6087;48.982;12.064;2023-03-23T14:36:31;15.90;24.20
12053;DHT22;6087;48.982;12.064;2023-03-23T14:39:04;15.90;24.40
12053;DHT22;6087;48.982;12.064;2023-03-23T14:41:34;15.90;24.60
12053;DHT22;6087;48.982;12.064;2023-03-23T14:44:05;15.90;24.40
12053;DHT22;6087;48.982;12.064;2023-03-23T14:46:33;15.90;24.40
12053;DHT22;6087;48.982;12.064;2023-03-23T14:49:01;15.80;24.30
12053;DHT22;6087;48.982;12.064;2023-03-23T14:51:29;15.80;24.30
12053;DHT22;6087;48.982;12.064;2023-03-23T14:53:58;15.80;24.40
12053;DHT22;6087;48.982;12.064;2023-03-23T14:56:33;15.80;24.50
12053;DHT22;6087;48.982;12.064;2023-03-23T14:59:05;15.80;24.30
12053;DHT22;6087;48.982;12.064;2023-03-23T15:01:36;15.80;24.80
12053;DHT22;6087;48.982;12.064;2023-03-23T15:04:07;15.80;24.90
12053;DHT22;6087;48.982;12.064;2023-03-23T15:06:37;15.80;24.80
12053;DHT22;6087;48.982;12.064;2023-03-23T15:09:09;15.80;24.90
12053;DHT22;6087;48.982;12.064;2023-03-23T15:11:39;15.80;24.60
12053;DHT22;6087;48.982;12.064;2023-03-23T15:14:14;15.80;24.30
12053;DHT22;6087;48.982;12.064;2023-03-23T15:16:46;15.90;24.50
12053;DHT22;6087;48.982;12.064;2023-03-23T15:19:17;15.90;24.80
12053;DHT22;6087;48.982;12.064;2023-03-23T15:21:51;15.90;24.50
12053;DHT22;6087;48.982;12.064;2023-03-23T15:24:27;15.90;24.90
12053;DHT22;6087;48.982;12.064;2023-03-23T15:27:10;15.90;25.30
12053;DHT22;6087;48.982;12.064;2023-03-23T15:29:48;15.90;25.30
12053;DHT22;6087;48.982;12.064;2023-03-23T15:32:21;15.90;25.30
12053;DHT22;6087;48.982;12.064;2023-03-23T15:34:49;15.90;25.50
12053;DHT22;6087;48.982;12.064;2023-03-23T15:37:20;15.80;25.30
12053;DHT22;6087;48.982;12.064;2023-03-23T15:39:47;15.80;25.20
12053;DHT22;6087;48.982;12.064;2023-03-23T15:42:25;15.80;25.40
12053;DHT22;6087;48.982;12.064;2023-03-23T15:45:02;15.80;25.30
12053;DHT22;6087;48.982;12.064;2023-03-23T15:47:38;15.80;25.60
12053;DHT22;6087;48.982;12.064;2023-03-23T15:50:15;15.80;25.10
12053;DHT22;6087;48.982;12.064;2023-03-23T15:52:43;15.70;24.80
12053;DHT22;6087;48.982;12.064;2023-03-23T15:55:23;15.70;25.00
12053;DHT22;6087;48.982;12.064;2023-03-23T15:57:51;15.70;25.20
12053;DHT22;6087;48.982;12.064;2023-03-23T16:00:22;15.70;25.50
12053;DHT22;6087;48.982;12.064;2023-03-23T16:02:52;15.70;25.90
12053;DHT22;6087;48.982;12.064;2023-03-23T16:05:20;15.70;26.20
12053;DHT22;6087;48.982;12.064;2023-03-23T16:07:47;15.70;26.60
12053;DHT22;6087;48.982;12.064;2023-03-23T16:10:15;15.60;26.60